Time;durP1;ratioP1;P1;durP2;ratioP2;P2;SDS_P1;SDS_P2;PMS_P1;PMS_P2;Temp;Humidity;BMP_temperature;BMP_pressure;BME280_temperature;BME280_humidity;BME280_pressure;Samples;Min_cycle;Max_cycle;Signal;HPM_P1;HPM_P2
2021/05/14 00:01:43;;;;;;;9.13;5.68;;;11.30;99.90;;;;;;3530937;40;20038;-68
2021/05/14 00:04:09;;;;;;;12.52;5.97;;;11.30;99.90;;;;;;3531326;40;20023;-68
2021/05/14 00:06:35;;;;;;;10.60;5.25;;;11.30;99.90;;;;;;3531184;40;20035;-68
2021/05/14 00:09:00;;;;;;;9.90;5.40;;;11.30;99.90;;;;;;3531047;40;20101;-66
2021/05/14 00:11:26;;;;;;;14.38;5.93;;;11.30;99.90;;;;;;3531169;40;20455;-68
2021/05/14 00:13:53;;;;;;;12.00;5.75;;;11.40;99.90;;;;;;3530836;40;20045;-69
2021/05/14 00:16:21;;;;;;;13.10;6.07;;;11.40;99.90;;;;;;3530914;40;20035;-67
2021/05/14 00:18:47;;;;;;;10.32;5.78;;;11.30;99.90;;;;;;3531131;40;20078;-69
2021/05/14 00:21:12;;;;;;;8.93;5.10;;;11.20;99.90;;;;;;3530944;40;20035;-68
2021/05/14 00:23:38;;;;;;;7.47;5.07;;;11.20;99.90;;;;;;3530884;40;20055;-67
2021/05/14 00:26:04;;;;;;;7.75;4.50;;;11.10;99.90;;;;;;3527688;40;20121;-68
2021/05/14 00:28:30;;;;;;;9.88;5.15;;;11.10;99.90;;;;;;3529784;40;20057;-68
2021/05/14 00:30:55;;;;;;;9.43;5.00;;;11.20;99.90;;;;;;3531104;40;20050;-68
2021/05/14 00:33:21;;;;;;;11.77;5.03;;;11.20;99.90;;;;;;3537994;40;20047;-67
2021/05/14 00:35:47;;;;;;;9.85;5.50;;;11.20;99.90;;;;;;3529524;40;20132;-68
2021/05/14 00:38:14;;;;;;;9.23;5.18;;;11.20;99.90;;;;;;3530763;40;20039;-69
2021/05/14 00:40:39;;;;;;;9.57;5.47;;;11.30;99.90;;;;;;3530117;40;20124;-69
2021/05/14 00:43:05;;;;;;;12.23;5.65;;;11.10;99.90;;;;;;3531028;40;20135;-70
2021/05/14 00:45:31;;;;;;;10.20;5.28;;;11.20;99.90;;;;;;3529553;40;20039;-69
2021/05/14 00:47:56;;;;;;;10.23;5.57;;;11.20;99.90;;;;;;3530815;40;20026;-68
2021/05/14 00:50:22;;;;;;;12.20;5.65;;;11.10;99.90;;;;;;3530984;40;20125;-69
2021/05/14 00:52:48;;;;;;;10.93;5.93;;;11.10;99.90;;;;;;3530739;40;20039;-68
2021/05/14 00:55:14;;;;;;;9.20;5.43;;;11.20;99.90;;;;;;3530578;40;20750;-69
2021/05/14 00:57:40;;;;;;;16.17;5.32;;;11.20;99.90;;;;;;3530650;40;20109;-68
2021/05/14 01:00:07;;;;;;;12.30;6.30;;;11.20;99.90;;;;;;3530139;40;20034;-69
2021/05/14 01:02:33;;;;;;;14.90;6.13;;;11.20;99.90;;;;;;3530300;40;20099;-69
2021/05/14 01:04:59;;;;;;;10.07;5.82;;;11.10;99.90;;;;;;3530181;40;20034;-67
2021/05/14 01:07:24;;;;;;;8.48;5.72;;;11.10;99.90;;;;;;3530143;40;20035;-68
2021/05/14 01:09:51;;;;;;;15.05;6.43;;;11.20;99.90;;;;;;3529828;40;20086;-69
2021/05/14 01:12:17;;;;;;;10.75;6.50;;;11.10;99.90;;;;;;3529862;40;20094;-68
2021/05/14 01:14:42;;;;;;;9.93;6.03;;;11.10;99.90;;;;;;3528062;40;20038;-68
2021/05/14 01:17:09;;;;;;;9.93;6.30;;;11.10;99.90;;;;;;3529901;40;20392;-67
2021/05/14 01:19:34;;;;;;;9.98;6.18;;;11.10;99.90;;;;;;3528568;40;20090;-67
2021/05/14 01:22:03;;;;;;;9.20;6.10;;;11.10;99.90;;;;;;3530141;40;20428;-67
2021/05/14 01:24:29;;;;;;;13.75;6.70;;;11.00;99.90;;;;;;3528432;40;20038;-68
2021/05/14 01:26:55;;;;;;;16.25;7.07;;;11.10;99.90;;;;;;3528433;40;20125;-67
2021/05/14 01:29:21;;;;;;;9.98;6.20;;;11.10;99.90;;;;;;3529331;40;20062;-68
2021/05/14 01:31:47;;;;;;;17.60;6.50;;;11.10;99.90;;;;;;3529292;40;20046;-69
2021/05/14 01:34:12;;;;;;;15.02;7.20;;;11.10;99.90;;;;;;3529350;40;20853;-68
2021/05/14 01:36:39;;;;;;;11.65;7.05;;;11.00;99.90;;;;;;3528321;40;20039;-69
2021/05/14 01:39:11;;;;;;;12.73;7.05;;;11.10;99.90;;;;;;3529503;40;20035;-68
2021/05/14 01:41:37;;;;;;;12.18;7.20;;;11.10;99.90;;;;;;3529421;40;20035;-69
2021/05/14 01:44:05;;;;;;;13.02;7.35;;;11.10;99.90;;;;;;3529913;40;20031;-69
2021/05/14 01:46:30;;;;;;;14.88;7.28;;;11.10;99.90;;;;;;3529233;40;20103;-69
2021/05/14 01:48:56;;;;;;;12.15;6.97;;;11.00;99.90;;;;;;3530246;40;20319;-69
2021/05/14 01:51:22;;;;;;;14.60;7.43;;;11.00;99.90;;;;;;3529307;40;20113;-69
2021/05/14 01:53:49;;;;;;;15.98;8.18;;;11.00;99.90;;;;;;3530272;40;20034;-64
2021/05/14 01:56:15;;;;;;;14.10;7.57;;;11.00;99.90;;;;;;3529782;40;20302;-64
2021/05/14 01:58:41;;;;;;;15.18;7.32;;;11.00;99.90;;;;;;3530076;40;20476;-64
2021/05/14 02:01:07;;;;;;;14.93;7.78;;;11.00;99.90;;;;;;3530574;40;20066;-64
2021/05/14 02:03:33;;;;;;;15.95;8.40;;;11.10;99.90;;;;;;3530858;40;20043;-64
2021/05/14 02:05:58;;;;;;;15.60;7.97;;;11.10;99.90;;;;;;3530611;40;20038;-63
2021/05/14 02:08:24;;;;;;;19.75;8.63;;;11.10;99.90;;;;;;3530707;40;20428;-63
2021/05/14 02:10:50;;;;;;;17.15;7.85;;;11.10;99.90;;;;;;3528939;40;20058;-63
2021/05/14 02:13:16;;;;;;;11.50;6.88;;;11.10;99.90;;;;;;3530507;40;20053;-64
2021/05/14 02:15:42;;;;;;;11.95;6.95;;;11.00;99.90;;;;;;3530190;40;20334;-63
2021/05/14 02:18:08;;;;;;;12.30;7.28;;;11.00;99.90;;;;;;3529709;40;20193;-62
2021/05/14 02:20:34;;;;;;;10.60;6.82;;;11.00;99.90;;;;;;3530237;40;20313;-62
2021/05/14 02:22:59;;;;;;;14.70;6.72;;;10.90;99.90;;;;;;3537356;40;20412;-63
2021/05/14 02:25:25;;;;;;;8.52;6.03;;;10.90;99.90;;;;;;3537435;40;20054;-63
2021/05/14 02:27:51;;;;;;;9.05;5.95;;;10.90;99.90;;;;;;3530091;40;20050;-63
2021/05/14 02:30:18;;;;;;;8.68;5.55;;;10.90;99.90;;;;;;3528969;40;20399;-63
2021/05/14 02:32:44;;;;;;;8.93;5.60;;;10.90;99.90;;;;;;3529315;40;20765;-62
2021/05/14 02:35:10;;;;;;;8.55;5.90;;;10.70;99.90;;;;;;3529038;40;20051;-62
2021/05/14 02:37:36;;;;;;;11.23;6.00;;;10.90;99.90;;;;;;3529232;40;20039;-63
2021/05/14 02:40:03;;;;;;;9.43;5.38;;;10.80;99.90;;;;;;3526850;40;20130;-63
2021/05/14 02:42:29;;;;;;;9.10;5.25;;;10.80;99.90;;;;;;3529132;40;20039;-63
2021/05/14 02:44:55;;;;;;;10.70;6.15;;;10.80;99.90;;;;;;3527560;40;20049;-63
2021/05/14 02:47:21;;;;;;;12.45;5.80;;;10.80;99.90;;;;;;3529064;40;20422;-63
2021/05/14 02:49:46;;;;;;;8.65;5.55;;;10.80;99.90;;;;;;3529291;40;20482;-63
2021/05/14 02:52:12;;;;;;;8.70;5.55;;;10.80;99.90;;;;;;3529256;40;20388;-63
2021/05/14 02:54:38;;;;;;;9.48;6.00;;;10.90;99.90;;;;;;3528722;40;20055;-63
2021/05/14 02:57:07;;;;;;;10.15;5.63;;;10.90;99.90;;;;;;3528721;40;20043;-63
2021/05/14 02:59:33;;;;;;;12.00;6.13;;;10.90;99.90;;;;;;3528338;40;20045;-63
2021/05/14 03:01:59;;;;;;;11.07;6.38;;;10.90;99.90;;;;;;3528659;40;20653;-63
2021/05/14 03:04:25;;;;;;;10.10;6.28;;;10.80;99.90;;;;;;3530088;40;20035;-64
2021/05/14 03:06:51;;;;;;;8.20;5.50;;;10.80;99.90;;;;;;3530080;40;20039;-64
2021/05/14 03:09:16;;;;;;;9.45;6.15;;;10.80;99.90;;;;;;3530040;40;20069;-64
2021/05/14 03:11:42;;;;;;;11.85;6.40;;;10.80;99.90;;;;;;3529612;40;20043;-63
2021/05/14 03:14:08;;;;;;;11.85;7.18;;;10.90;99.90;;;;;;3530112;40;20071;-65
2021/05/14 03:16:35;;;;;;;12.13;7.10;;;10.80;99.90;;;;;;3530269;40;20047;-65
2021/05/14 03:19:00;;;;;;;12.32;7.80;;;10.80;99.90;;;;;;3529719;40;20641;-63
2021/05/14 03:21:27;;;;;;;15.20;7.43;;;10.80;99.90;;;;;;3530202;40;20101;-63
2021/05/14 03:23:54;;;;;;;24.20;7.88;;;10.80;99.90;;;;;;3530061;40;20675;-64
2021/05/14 03:26:19;;;;;;;14.43;8.02;;;10.80;99.90;;;;;;3530389;40;20050;-63
2021/05/14 03:28:45;;;;;;;14.48;8.55;;;10.80;99.90;;;;;;3530162;40;20073;-63
2021/05/14 03:31:11;;;;;;;16.92;8.90;;;10.80;99.90;;;;;;3530202;40;20054;-64
2021/05/14 03:33:36;;;;;;;15.95;8.93;;;10.80;99.90;;;;;;3530789;40;20059;-63
2021/05/14 03:36:02;;;;;;;18.05;9.45;;;10.80;99.90;;;;;;3528227;40;20125;-63
2021/05/14 03:38:33;;;;;;;34.00;13.23;;;10.80;99.90;;;;;;3537063;40;20034;-63
2021/05/14 03:41:16;;;;;;;22.60;11.13;;;10.80;99.90;;;;;;3530216;40;20035;-63
2021/05/14 03:43:42;;;;;;;17.90;9.93;;;10.80;99.90;;;;;;3530400;40;20039;-63
2021/05/14 03:46:08;;;;;;;21.17;10.90;;;10.80;99.90;;;;;;3530425;40;20061;-63
2021/05/14 03:48:34;;;;;;;24.88;12.40;;;10.90;99.90;;;;;;3530680;40;20137;-63
2021/05/14 03:50:59;;;;;;;17.20;10.82;;;10.90;99.90;;;;;;3530601;40;20051;-63
2021/05/14 03:53:26;;;;;;;23.95;11.80;;;10.90;99.90;;;;;;3530244;40;20045;-63
2021/05/14 03:55:52;;;;;;;24.00;11.70;;;10.80;99.90;;;;;;3530025;40;20050;-63
2021/05/14 03:58:18;;;;;;;30.65;13.68;;;10.90;99.90;;;;;;3528703;40;20019;-63
2021/05/14 04:00:44;;;;;;;23.73;12.20;;;10.80;99.90;;;;;;3529355;40;20094;-64
2021/05/14 04:03:11;;;;;;;33.20;14.00;;;10.80;99.90;;;;;;3529981;40;20046;-63
2021/05/14 04:05:39;;;;;;;33.85;15.48;;;10.80;99.90;;;;;;3529835;40;20102;-63
2021/05/14 04:08:06;;;;;;;32.75;14.68;;;10.90;99.90;;;;;;3529626;40;20041;-63
2021/05/14 04:16:07;;;;;;;30.67;15.57;;;10.90;99.90;;;;;;3528956;40;20425;-64
2021/05/14 04:18:37;;;;;;;36.67;17.23;;;10.80;99.90;;;;;;3530554;40;20035;-64
2021/05/14 04:21:04;;;;;;;31.08;15.52;;;10.80;99.90;;;;;;3529341;40;20065;-63
2021/05/14 04:23:29;;;;;;;36.15;15.85;;;10.80;99.90;;;;;;3523701;40;20077;-63
2021/05/14 04:25:55;;;;;;;30.30;14.90;;;10.80;99.90;;;;;;3529665;40;20039;-63
2021/05/14 04:28:21;;;;;;;30.02;15.10;;;10.80;99.90;;;;;;3528816;40;20054;-63
2021/05/14 04:30:47;;;;;;;29.45;14.15;;;10.80;99.90;;;;;;3528077;40;20057;-63
2021/05/14 04:33:12;;;;;;;24.85;13.25;;;10.80;99.90;;;;;;3530222;40;20034;-64
2021/05/14 04:35:38;;;;;;;33.90;14.13;;;10.90;99.90;;;;;;3529690;40;20039;-63
2021/05/14 04:38:04;;;;;;;34.50;14.25;;;10.80;99.90;;;;;;3529656;40;20382;-63
2021/05/14 04:40:30;;;;;;;32.03;14.43;;;10.80;99.90;;;;;;3529834;40;20027;-63
2021/05/14 04:43:03;;;;;;;25.75;14.05;;;10.80;99.90;;;;;;3529627;40;20054;-63
2021/05/14 04:45:29;;;;;;;31.75;14.60;;;10.80;99.90;;;;;;3529464;40;20862;-63
2021/05/14 04:47:55;;;;;;;25.80;13.32;;;10.80;99.90;;;;;;3529381;40;20046;-63
2021/05/14 04:50:21;;;;;;;35.22;14.85;;;10.80;99.90;;;;;;3528048;40;20074;-63
2021/05/14 04:52:47;;;;;;;28.98;14.45;;;10.80;99.90;;;;;;3529584;40;20039;-63
2021/05/14 04:55:15;;;;;;;25.98;13.27;;;10.80;99.90;;;;;;3529172;40;20840;-64
2021/05/14 04:57:40;;;;;;;29.23;14.93;;;10.70;99.90;;;;;;3529605;40;20042;-63
2021/05/14 05:00:07;;;;;;;26.58;13.48;;;10.80;99.90;;;;;;3529547;40;20075;-63
2021/05/14 05:02:33;;;;;;;35.85;14.07;;;10.70;99.90;;;;;;3529741;40;20540;-64
2021/05/14 05:05:00;;;;;;;30.25;13.15;;;10.80;99.90;;;;;;3536775;40;20046;-64
2021/05/14 05:07:26;;;;;;;23.42;13.18;;;10.90;99.90;;;;;;3529856;40;20136;-63
2021/05/14 05:09:52;;;;;;;23.92;12.63;;;10.90;99.90;;;;;;3529119;40;20684;-63
2021/05/14 05:12:17;;;;;;;26.98;14.32;;;11.00;99.90;;;;;;3529816;40;20428;-63
2021/05/14 05:14:43;;;;;;;22.35;11.85;;;11.00;99.90;;;;;;3530104;40;20071;-63
2021/05/14 05:17:09;;;;;;;23.20;12.30;;;11.00;99.90;;;;;;3530152;40;20467;-64
2021/05/14 05:19:35;;;;;;;26.08;12.13;;;11.00;99.90;;;;;;3529848;40;20117;-64
2021/05/14 05:22:01;;;;;;;26.42;12.48;;;11.00;99.90;;;;;;3529592;40;20045;-63
2021/05/14 05:24:27;;;;;;;20.65;11.73;;;11.00;99.90;;;;;;3529671;40;20296;-63
2021/05/14 05:26:53;;;;;;;20.35;11.45;;;10.90;99.90;;;;;;3528775;40;20057;-63
2021/05/14 05:29:18;;;;;;;25.40;12.27;;;10.90;99.90;;;;;;3529513;40;20066;-64
2021/05/14 05:31:44;;;;;;;22.92;11.93;;;11.00;99.90;;;;;;3529291;40;20395;-63
2021/05/14 05:34:10;;;;;;;22.65;12.27;;;11.00;99.90;;;;;;3529892;40;20027;-64
2021/05/14 05:36:36;;;;;;;22.92;11.93;;;11.00;99.90;;;;;;3530060;40;20038;-64
2021/05/14 05:39:03;;;;;;;24.35;11.50;;;10.90;99.90;;;;;;3530099;40;20304;-63
2021/05/14 05:41:28;;;;;;;20.33;10.90;;;11.00;99.90;;;;;;3529731;40;20051;-64
2021/05/14 05:43:54;;;;;;;21.98;11.20;;;11.00;99.90;;;;;;3529916;40;20042;-64
2021/05/14 05:46:21;;;;;;;19.05;9.52;;;10.80;99.90;;;;;;3530443;40;20135;-63
2021/05/14 05:48:49;;;;;;;19.13;10.20;;;11.00;99.90;;;;;;3530261;40;20424;-64
2021/05/14 05:51:15;;;;;;;19.67;9.90;;;10.90;99.90;;;;;;3530323;40;20433;-64
2021/05/14 05:53:42;;;;;;;14.95;9.07;;;11.00;99.90;;;;;;3528482;40;20134;-63
2021/05/14 05:56:07;;;;;;;14.70;8.52;;;11.00;99.90;;;;;;3528896;40;20141;-64
2021/05/14 05:58:33;;;;;;;15.52;8.30;;;11.00;99.90;;;;;;3528630;40;20523;-63
2021/05/14 06:00:59;;;;;;;12.05;6.82;;;11.00;99.90;;;;;;3529791;40;20540;-63
2021/05/14 06:03:25;;;;;;;10.57;5.80;;;11.00;99.90;;;;;;3528897;40;20766;-63
2021/05/14 06:05:51;;;;;;;10.77;5.43;;;11.00;99.90;;;;;;3528297;40;20039;-64
2021/05/14 06:08:17;;;;;;;5.90;4.47;;;10.90;99.90;;;;;;3528533;40;20062;-64
2021/05/14 06:10:44;;;;;;;5.47;3.83;;;10.90;99.90;;;;;;3528548;40;20133;-64
2021/05/14 06:13:10;;;;;;;7.72;4.28;;;10.90;99.90;;;;;;3529733;40;20082;-63
2021/05/14 06:15:36;;;;;;;6.88;4.40;;;10.80;99.90;;;;;;3530260;40;20730;-63
2021/05/14 06:18:01;;;;;;;9.73;4.32;;;10.80;99.90;;;;;;3530183;40;20034;-63
2021/05/14 06:20:29;;;;;;;9.40;4.90;;;10.80;99.90;;;;;;3529907;40;20043;-64
2021/05/14 06:22:55;;;;;;;7.15;4.30;;;10.80;99.90;;;;;;3529790;40;20336;-63
2021/05/14 06:25:21;;;;;;;8.63;4.30;;;10.80;99.90;;;;;;3529851;40;20094;-63
2021/05/14 06:27:47;;;;;;;6.72;3.97;;;10.70;99.90;;;;;;3529499;40;20039;-63
2021/05/14 06:30:14;;;;;;;7.55;3.97;;;10.70;99.90;;;;;;3529143;40;20528;-64
2021/05/14 06:32:40;;;;;;;8.57;3.60;;;10.60;99.90;;;;;;3529383;40;20031;-64
2021/05/14 06:35:06;;;;;;;6.60;3.55;;;10.50;99.90;;;;;;3527870;40;20098;-64
2021/05/14 06:37:36;;;;;;;7.10;4.18;;;10.60;99.90;;;;;;3528606;40;20332;-64
2021/05/14 06:40:07;;;;;;;7.32;4.47;;;10.60;99.90;;;;;;3530022;40;20053;-64
2021/05/14 06:42:33;;;;;;;7.70;4.00;;;10.60;99.90;;;;;;3529850;40;20047;-64
2021/05/14 06:44:58;;;;;;;11.30;4.93;;;10.60;99.90;;;;;;3530067;40;20129;-64
2021/05/14 06:47:24;;;;;;;6.07;4.38;;;10.60;99.90;;;;;;3529539;40;20376;-64
2021/05/14 06:49:50;;;;;;;7.43;4.53;;;10.70;99.90;;;;;;3530042;40;20158;-64
2021/05/14 06:52:15;;;;;;;10.10;5.20;;;10.70;99.90;;;;;;3537452;40;20065;-64
2021/05/14 06:54:41;;;;;;;40.90;5.93;;;10.60;99.90;;;;;;3530946;40;20049;-63
2021/05/14 06:57:07;;;;;;;6.55;3.08;;;10.60;99.90;;;;;;3529717;40;20397;-63
2021/05/14 06:59:33;;;;;;;7.32;4.05;;;10.60;99.90;;;;;;3530221;40;20027;-63
2021/05/14 07:01:58;;;;;;;9.20;4.40;;;10.60;99.90;;;;;;3531294;40;20046;-63
2021/05/14 07:04:24;;;;;;;6.88;3.95;;;10.70;99.90;;;;;;3531069;40;20076;-64
2021/05/14 07:06:50;;;;;;;6.07;3.70;;;10.60;99.90;;;;;;3531167;40;20364;-63
2021/05/14 07:09:15;;;;;;;7.57;4.53;;;10.60;99.90;;;;;;3526139;40;20050;-65
2021/05/14 07:11:41;;;;;;;11.95;4.15;;;10.60;99.90;;;;;;3530620;40;20039;-63
2021/05/14 07:14:07;;;;;;;7.65;4.03;;;10.70;99.90;;;;;;3531126;40;20037;-63
2021/05/14 07:16:33;;;;;;;9.60;3.58;;;10.70;99.90;;;;;;3530685;40;20045;-63
2021/05/14 07:18:58;;;;;;;9.10;4.53;;;10.70;99.90;;;;;;3529448;40;20061;-63
2021/05/14 07:21:24;;;;;;;12.05;4.13;;;10.70;99.90;;;;;;3531026;40;20066;-64
2021/05/14 07:23:50;;;;;;;8.85;4.55;;;10.60;99.90;;;;;;3530749;40;20046;-64
2021/05/14 07:26:17;;;;;;;11.73;5.65;;;10.60;99.90;;;;;;3531150;40;20042;-64
2021/05/14 07:28:43;;;;;;;15.45;5.32;;;10.60;99.90;;;;;;3529983;40;20760;-64
2021/05/14 07:31:08;;;;;;;20.38;9.45;;;10.70;99.90;;;;;;3530899;40;20042;-65
2021/05/14 07:33:37;;;;;;;11.75;4.60;;;10.70;99.90;;;;;;3530962;40;20416;-64
2021/05/14 07:36:04;;;;;;;9.82;4.55;;;10.70;99.90;;;;;;3530746;40;20057;-64
2021/05/14 07:38:30;;;;;;;9.73;4.65;;;10.70;99.90;;;;;;3530505;40;20666;-64
2021/05/14 07:40:56;;;;;;;8.93;5.05;;;10.80;99.90;;;;;;3537795;40;20121;-63
2021/05/14 07:43:21;;;;;;;14.60;5.18;;;10.70;99.90;;;;;;3530565;40;20047;-63
2021/05/14 07:45:47;;;;;;;8.18;5.25;;;10.80;99.90;;;;;;3531161;40;20460;-63
2021/05/14 07:48:22;;;;;;;11.95;6.00;;;10.80;99.90;;;;;;3530314;40;20054;-63
2021/05/14 07:50:49;;;;;;;12.18;6.05;;;10.80;99.90;;;;;;3530594;40;20035;-63
2021/05/14 07:53:15;;;;;;;12.93;5.93;;;10.80;99.90;;;;;;3530532;40;20703;-64
2021/05/14 07:55:41;;;;;;;12.40;5.95;;;10.80;99.90;;;;;;3530216;40;20128;-64
2021/05/14 07:58:06;;;;;;;9.25;5.95;;;10.80;99.90;;;;;;3537635;40;20102;-64
2021/05/14 08:00:32;;;;;;;11.85;6.40;;;10.80;99.90;;;;;;3530020;40;20039;-64
2021/05/14 08:02:58;;;;;;;15.73;5.47;;;10.80;99.90;;;;;;3530388;40;20163;-63
2021/05/14 08:05:23;;;;;;;14.50;6.63;;;10.80;99.90;;;;;;3530244;40;20034;-63
2021/05/14 08:08:00;;;;;;;10.63;5.72;;;10.80;99.90;;;;;;3530232;40;20129;-63
2021/05/14 08:10:26;;;;;;;10.32;5.60;;;10.80;99.90;;;;;;3528564;40;20038;-63
2021/05/14 08:12:52;;;;;;;13.25;6.38;;;10.80;99.90;;;;;;3529904;40;20058;-63
2021/05/14 08:15:18;;;;;;;8.45;5.22;;;10.90;99.90;;;;;;3529167;40;20111;-63
2021/05/14 08:17:47;;;;;;;11.90;5.47;;;10.90;99.90;;;;;;3529029;40;20436;-63
2021/05/14 08:20:13;;;;;;;10.85;5.07;;;10.90;99.90;;;;;;3529894;40;20773;-64
2021/05/14 08:22:41;;;;;;;17.05;5.28;;;10.90;99.90;;;;;;3529685;40;20050;-64
2021/05/14 08:25:07;;;;;;;8.85;5.35;;;10.90;99.90;;;;;;3528281;40;20051;-64
2021/05/14 08:27:33;;;;;;;10.60;5.30;;;10.90;99.90;;;;;;3530328;40;20349;-64
2021/05/14 08:29:59;;;;;;;10.40;4.85;;;10.90;99.90;;;;;;3529865;40;20444;-64
2021/05/14 08:32:24;;;;;;;13.13;5.95;;;10.90;99.90;;;;;;3530488;40;20659;-64
2021/05/14 08:34:50;;;;;;;15.27;5.70;;;10.90;99.90;;;;;;3530509;40;20047;-64
2021/05/14 08:37:16;;;;;;;8.02;5.00;;;10.90;99.90;;;;;;3530233;40;20043;-64
2021/05/14 08:39:42;;;;;;;9.15;5.00;;;10.90;99.90;;;;;;3530804;40;20051;-69
2021/05/14 08:42:07;;;;;;;9.25;4.65;;;10.90;99.90;;;;;;3530835;40;20039;-69
2021/05/14 08:44:34;;;;;;;9.10;4.30;;;11.00;99.90;;;;;;3529977;40;20059;-69
2021/05/14 08:46:59;;;;;;;16.52;4.65;;;11.00;99.90;;;;;;3530762;40;20075;-69
2021/05/14 08:49:25;;;;;;;12.52;4.70;;;11.00;99.90;;;;;;3531241;40;20035;-69
2021/05/14 08:51:53;;;;;;;11.10;3.70;;;11.00;99.90;;;;;;3530391;40;20038;-63
2021/05/14 08:54:18;;;;;;;9.10;3.80;;;11.00;99.90;;;;;;3530646;40;20087;-63
2021/05/14 08:56:44;;;;;;;17.38;5.00;;;10.90;99.90;;;;;;3530954;40;20074;-63
2021/05/14 08:59:10;;;;;;;8.82;3.45;;;10.90;99.90;;;;;;3530852;40;20101;-69
2021/05/14 09:01:38;;;;;;;7.78;3.40;;;10.80;99.90;;;;;;3530073;40;20342;-65
2021/05/14 09:04:12;;;;;;;11.05;4.53;;;10.70;99.90;;;;;;3530503;40;20063;-70
2021/05/14 09:06:39;;;;;;;14.38;4.25;;;10.70;99.90;;;;;;3529833;40;20129;-69
2021/05/14 09:09:12;;;;;;;14.38;4.22;;;10.70;99.90;;;;;;3530101;40;20039;-63
2021/05/14 09:11:39;;;;;;;12.23;3.45;;;10.80;99.90;;;;;;3530898;40;20341;-69
2021/05/14 09:14:26;;;;;;;9.50;3.58;;;10.80;99.90;;;;;;3530473;40;20463;-69
2021/05/14 09:16:52;;;;;;;15.48;3.42;;;10.80;99.90;;;;;;3537396;40;20092;-63
2021/05/14 09:19:30;;;;;;;9.38;3.50;;;10.80;99.90;;;;;;3529743;40;20075;-65
2021/05/14 09:22:18;;;;;;;5.97;3.05;;;10.80;99.90;;;;;;3531128;40;20042;-64
2021/05/14 09:24:47;;;;;;;8.82;3.47;;;10.90;99.90;;;;;;3528101;40;20043;-63
2021/05/14 09:27:34;;;;;;;7.40;3.70;;;10.90;99.90;;;;;;3531182;40;20143;-63
2021/05/14 09:30:01;;;;;;;5.63;3.13;;;10.90;99.90;;;;;;3527873;40;20145;-63
2021/05/14 09:32:35;;;;;;;11.10;3.10;;;11.00;99.90;;;;;;3530038;40;20152;-63
2021/05/14 09:35:05;;;;;;;7.22;2.90;;;11.00;99.90;;;;;;3528859;40;20046;-63
2021/05/14 09:37:31;;;;;;;12.05;3.80;;;11.00;99.90;;;;;;3528573;40;20043;-62
2021/05/14 09:40:21;;;;;;;9.85;3.75;;;11.00;99.90;;;;;;3530357;40;20102;-67
2021/05/14 09:42:49;;;;;;;10.65;4.13;;;11.00;99.90;;;;;;3529547;40;20042;-62
2021/05/14 09:45:26;;;;;;;5.65;3.78;;;11.00;99.90;;;;;;3530978;40;20699;-67
2021/05/14 09:48:15;;;;;;;6.40;3.38;;;11.10;99.90;;;;;;3531385;40;20133;-67
2021/05/14 09:50:42;;;;;;;6.18;3.78;;;11.10;99.90;;;;;;3531093;40;20433;-67
2021/05/14 09:53:11;;;;;;;7.07;3.50;;;11.10;99.90;;;;;;3530866;40;20054;-62
2021/05/14 09:55:39;;;;;;;9.68;3.58;;;11.10;99.90;;;;;;3530193;40;20038;-62
2021/05/14 09:58:15;;;;;;;8.10;3.53;;;11.20;99.90;;;;;;3530993;40;20109;-70
2021/05/14 10:00:41;;;;;;;6.35;3.40;;;11.00;99.90;;;;;;3530787;40;20046;-67
2021/05/14 10:03:09;;;;;;;6.97;3.40;;;10.90;99.90;;;;;;3530809;40;20085;-67
2021/05/14 10:05:37;;;;;;;8.45;3.97;;;11.00;99.90;;;;;;3530762;40;20401;-67
2021/05/14 10:08:05;;;;;;;11.85;5.35;;;10.90;99.90;;;;;;3530778;40;20059;-67
2021/05/14 10:10:33;;;;;;;9.68;4.38;;;11.00;99.90;;;;;;3530582;40;20058;-67
2021/05/14 10:12:59;;;;;;;9.00;3.85;;;11.10;99.90;;;;;;3530400;40;20066;-67
2021/05/14 10:15:26;;;;;;;6.50;3.80;;;11.00;99.90;;;;;;3530491;40;20825;-67
2021/05/14 10:17:53;;;;;;;9.55;4.15;;;11.00;99.90;;;;;;3537187;40;20325;-61
2021/05/14 10:20:24;;;;;;;8.82;6.57;;;11.00;99.90;;;;;;3529960;40;20046;-61
2021/05/14 10:22:52;;;;;;;8.85;4.30;;;11.20;99.90;;;;;;3525661;40;20074;-61
2021/05/14 10:25:49;;;;;;;5.78;3.75;;;11.30;99.90;;;;;;3527236;40;20051;-62
2021/05/14 10:28:24;;;;;;;18.27;11.77;;;11.60;99.90;;;;;;3527949;40;20030;-62
2021/05/14 10:31:04;;;;;;;4.40;2.78;;;11.80;99.90;;;;;;3530166;40;20371;-62
2021/05/14 10:33:53;;;;;;;19.10;11.40;;;12.20;99.90;;;;;;3530549;40;20047;-62
2021/05/14 10:36:22;;;;;;;5.25;3.30;;;12.30;99.90;;;;;;3529482;40;20071;-63
2021/05/14 10:39:14;;;;;;;11.52;5.70;;;12.40;99.90;;;;;;3530580;40;20046;-61
2021/05/14 10:41:52;;;;;;;5.40;1.73;;;12.30;99.90;;;;;;3528534;40;20028;-67
2021/05/14 10:44:37;;;;;;;5.85;1.52;;;12.50;99.90;;;;;;3529359;40;20089;-67
2021/05/14 10:47:23;;;;;;;4.05;3.03;;;12.50;99.90;;;;;;3529148;40;20039;-67
2021/05/14 10:49:54;;;;;;;3.92;2.22;;;12.70;99.90;;;;;;3527371;40;20039;-68
2021/05/14 10:52:19;;;;;;;6.53;1.60;;;13.10;99.90;;;;;;3527896;40;20042;-67
2021/05/14 10:54:45;;;;;;;3.10;1.67;;;13.50;99.90;;;;;;3528435;40;20053;-68
2021/05/14 10:57:13;;;;;;;2.88;1.92;;;13.70;99.90;;;;;;3528757;40;20043;-61
2021/05/14 10:59:40;;;;;;;3.33;1.60;;;13.70;99.90;;;;;;3528577;40;20038;-67
2021/05/14 11:02:26;;;;;;;45.70;22.65;;;13.90;99.90;;;;;;3528824;40;20047;-67
2021/05/14 11:04:52;;;;;;;6.95;1.80;;;13.80;99.90;;;;;;3528240;40;20039;-67
2021/05/14 11:07:35;;;;;;;4.95;2.20;;;13.90;99.90;;;;;;3528512;40;20810;-67
2021/05/14 11:10:13;;;;;;;2.92;1.73;;;13.80;99.90;;;;;;3526484;40;20046;-68
2021/05/14 11:12:43;;;;;;;3.95;2.05;;;13.90;99.90;;;;;;3528543;40;20058;-67
2021/05/14 11:15:33;;;;;;;5.50;3.78;;;13.80;99.90;;;;;;3527416;40;20046;-68
2021/05/14 11:18:14;;;;;;;18.90;9.63;;;13.90;99.90;;;;;;3526519;40;20059;-67
2021/05/14 11:20:44;;;;;;;5.22;3.20;;;13.60;99.90;;;;;;3527873;40;20059;-67
2021/05/14 11:23:30;;;;;;;4.63;1.50;;;13.20;99.90;;;;;;3530268;40;20090;-67
2021/05/14 11:25:56;;;;;;;7.03;3.00;;;13.00;99.90;;;;;;3530745;40;20042;-67
2021/05/14 11:28:46;;;;;;;6.10;1.75;;;13.10;99.90;;;;;;3530910;40;20615;-67
2021/05/14 11:31:19;;;;;;;6.38;1.60;;;13.30;99.90;;;;;;3530021;40;20102;-67
2021/05/14 11:33:50;;;;;;;2.90;1.13;;;13.30;99.90;;;;;;3527839;40;20043;-67
2021/05/14 11:36:16;;;;;;;2.28;0.98;;;13.40;99.90;;;;;;3530119;40;20082;-67
2021/05/14 11:38:45;;;;;;;7.78;1.30;;;13.30;99.90;;;;;;3530024;40;20708;-67
2021/05/14 11:41:15;;;;;;;3.75;1.73;;;13.10;99.90;;;;;;3527832;40;20047;-67
2021/05/14 11:43:51;;;;;;;1.63;0.80;;;13.20;99.90;;;;;;3530963;40;20046;-67
2021/05/14 11:46:16;;;;;;;6.60;1.40;;;13.40;99.90;;;;;;3530854;40;20041;-67
2021/05/14 11:48:42;;;;;;;2.95;1.65;;;13.50;99.90;;;;;;3531127;40;20098;-67
2021/05/14 11:51:08;;;;;;;2.28;1.10;;;13.50;99.90;;;;;;3530401;40;20046;-66
2021/05/14 11:53:33;;;;;;;8.63;1.35;;;13.50;99.90;;;;;;3530542;40;20061;-67
2021/05/14 11:55:59;;;;;;;4.20;2.50;;;13.40;99.90;;;;;;3530850;40;20051;-67
2021/05/14 11:58:26;;;;;;;7.57;3.00;;;13.30;99.90;;;;;;3531235;40;20049;-67
2021/05/14 12:00:53;;;;;;;2.08;1.00;;;13.20;99.90;;;;;;3530849;40;20121;-66
2021/05/14 12:03:22;;;;;;;6.15;2.28;;;13.20;99.90;;;;;;3538017;40;20129;-67
2021/05/14 12:05:49;;;;;;;3.95;2.97;;;13.10;99.90;;;;;;3527156;40;20328;-66
2021/05/14 12:08:19;;;;;;;5.15;2.33;;;13.10;99.90;;;;;;3531298;40;20031;-66
2021/05/14 12:10:50;;;;;;;2.97;1.10;;;13.00;99.90;;;;;;3531344;40;20031;-66
2021/05/14 12:13:20;;;;;;;5.10;1.38;;;13.00;99.90;;;;;;3529972;40;20030;-66
2021/05/14 12:15:55;;;;;;;4.60;1.90;;;13.00;99.90;;;;;;3530892;40;20380;-66
2021/05/14 12:18:21;;;;;;;;;;;13.00;99.90;;;;;;3531285;40;20328;-66
2021/05/14 12:20:47;;;;;;;3.75;1.88;;;13.10;99.90;;;;;;3530721;40;19941;-67
2021/05/14 12:23:13;;;;;;;2.35;1.00;;;13.30;99.90;;;;;;3529153;40;20511;-66
2021/05/14 12:25:43;;;;;;;1.52;0.90;;;13.40;99.90;;;;;;3530541;40;20713;-66
2021/05/14 12:28:30;;;;;;;3.10;1.10;;;13.40;99.90;;;;;;3530445;40;20057;-66
2021/05/14 12:30:56;;;;;;;4.85;2.05;;;13.50;99.90;;;;;;3529417;40;20458;-60
2021/05/14 12:33:22;;;;;;;3.30;1.17;;;13.50;99.90;;;;;;3538935;40;20050;-60
2021/05/14 12:35:59;;;;;;;4.57;1.80;;;13.60;99.90;;;;;;3531197;40;20050;-60
2021/05/14 12:38:41;;;;;;;5.10;1.33;;;13.70;99.90;;;;;;3530490;40;20047;-60
2021/05/14 12:41:31;;;;;;;5.28;1.10;;;13.50;99.90;;;;;;3530677;40;20117;-60
2021/05/14 12:44:13;;;;;;;7.95;1.58;;;13.70;99.90;;;;;;3530482;40;20045;-66
2021/05/14 12:47:12;;;;;;;2.92;1.48;;;13.70;99.90;;;;;;3530152;40;20042;-66
2021/05/14 12:49:49;;;;;;;4.03;2.28;;;13.70;99.90;;;;;;3530821;40;20030;-66
2021/05/14 12:52:20;;;;;;;3.80;2.22;;;13.80;99.90;;;;;;3529555;40;20034;-67